Accueil
METAR-TAF:

METAR-TAF

Aéroports :

Nanaimo, Colombie-Britannique, Canada

latitude: 49-03N, longitude: 123-52W, altitude: 28 m

Observation

Le bulletin a été fait il y a 6 heures et 14 minutes, à 05:00 UTC
Vent 2 kt de sud-ouest
Température 0°C
Humidité 100%
Pression 1028 hPa
Visibilité: 9.7 km
Ciel clair
brume

METAR: CYCD 110500Z 23002KT 6SM BR SKC M00/M00 A3035 RMK LAST OBS/NEXT 111400 UTC SLP282

Heure: 03:14 (11:14 UTC)

Prévision

Le bulletin a été fait il y a 10 heures et 9 minutes, à 01:05 UTC
Prévision valable du 11 à 01 UTC au 11 à 05 UTC
Vent 3 kt de direction variable
Visibilité: 10 km
Nuages épars à une hauteur de 12000 ft
Probabilité 40%
du 11 à 01 UTC au 11 à 05 UTC
Visibilité: 1.2 km
Nuages fragmentés à une hauteur de 500 ft
brume

TAF: CYCD 110105Z 1101/1105 VRB03KT P6SM SCT120 PROB40 1101/1105 3/4SM BR BKN005 RMK NXT FCST WILL BE ISSUED AT 111545Z

Observations et prévisions météorologiques de plus de 4000 aéroports (messages METAR et TAF).

Les stations disponibles sont représentées par des disques jaunes et rouges sur la carte.

Passer la souris dessus pour voir le nom de la station.

Cliquer dessus pour voir les observations et prévisions météorologiques.

Pour changer de carte: cliquez sur les boutons verts avec une croix noire pour zoomer, sur le bouton vert avec un tiret pour effectuer un zoom arrière, ou sur les flèches vertes pour les cartes adjacentes.


METAR-TAF: